sensor_id;sensor_type;location;lat;lon;timestamp;P1;durP1;ratioP1;P2;durP2;ratioP2
71671;SDS011;67659;45.554;11.812;2024-02-15T00:00:13;31.43;;;17.60;;
71671;SDS011;67659;45.554;11.812;2024-02-15T00:02:42;32.33;;;18.67;;
71671;SDS011;67659;45.554;11.812;2024-02-15T00:05:10;30.95;;;17.92;;
71671;SDS011;67659;45.554;11.812;2024-02-15T00:07:36;35.35;;;18.13;;
71671;SDS011;67659;45.554;11.812;2024-02-15T00:10:04;33.47;;;19.60;;
71671;SDS011;67659;45.554;11.812;2024-02-15T00:12:33;36.73;;;20.07;;
71671;SDS011;67659;45.554;11.812;2024-02-15T00:14:59;40.30;;;22.17;;
71671;SDS011;67659;45.554;11.812;2024-02-15T00:17:26;45.58;;;23.33;;
71671;SDS011;67659;45.554;11.812;2024-02-15T00:19:54;50.63;;;27.95;;
71671;SDS011;67659;45.554;11.812;2024-02-15T00:22:21;36.13;;;20.67;;
71671;SDS011;67659;45.554;11.812;2024-02-15T00:24:47;38.03;;;20.17;;
71671;SDS011;67659;45.554;11.812;2024-02-15T00:27:16;41.15;;;21.48;;
71671;SDS011;67659;45.554;11.812;2024-02-15T00:29:43;45.17;;;25.58;;
71671;SDS011;67659;45.554;11.812;2024-02-15T00:32:09;59.78;;;26.42;;
71671;SDS011;67659;45.554;11.812;2024-02-15T00:34:38;44.92;;;24.50;;
71671;SDS011;67659;45.554;11.812;2024-02-15T00:37:04;46.23;;;25.20;;
71671;SDS011;67659;45.554;11.812;2024-02-15T00:39:30;47.47;;;25.40;;
71671;SDS011;67659;45.554;11.812;2024-02-15T00:41:57;48.42;;;26.15;;
71671;SDS011;67659;45.554;11.812;2024-02-15T00:44:25;52.17;;;28.20;;
71671;SDS011;67659;45.554;11.812;2024-02-15T00:46:52;57.80;;;30.42;;
71671;SDS011;67659;45.554;11.812;2024-02-15T00:49:18;54.30;;;29.90;;
71671;SDS011;67659;45.554;11.812;2024-02-15T00:51:47;57.90;;;31.83;;
71671;SDS011;67659;45.554;11.812;2024-02-15T00:54:13;53.28;;;30.23;;
71671;SDS011;67659;45.554;11.812;2024-02-15T00:56:40;50.25;;;29.25;;
71671;SDS011;67659;45.554;11.812;2024-02-15T00:59:06;51.92;;;29.05;;
71671;SDS011;67659;45.554;11.812;2024-02-15T01:01:32;48.87;;;26.50;;
71671;SDS011;67659;45.554;11.812;2024-02-15T01:03:58;47.88;;;26.92;;
71671;SDS011;67659;45.554;11.812;2024-02-15T01:06:24;53.83;;;30.08;;
71671;SDS011;67659;45.554;11.812;2024-02-15T01:08:50;49.75;;;26.63;;
71671;SDS011;67659;45.554;11.812;2024-02-15T01:11:16;56.20;;;30.20;;
71671;SDS011;67659;45.554;11.812;2024-02-15T01:13:42;52.38;;;29.23;;
71671;SDS011;67659;45.554;11.812;2024-02-15T01:16:09;49.22;;;27.33;;
71671;SDS011;67659;45.554;11.812;2024-02-15T01:18:35;43.78;;;24.98;;
71671;SDS011;67659;45.554;11.812;2024-02-15T01:21:01;45.23;;;23.70;;
71671;SDS011;67659;45.554;11.812;2024-02-15T01:23:27;43.38;;;24.30;;
71671;SDS011;67659;45.554;11.812;2024-02-15T01:25:54;40.08;;;22.27;;
71671;SDS011;67659;45.554;11.812;2024-02-15T01:28:20;41.05;;;21.90;;
71671;SDS011;67659;45.554;11.812;2024-02-15T01:30:47;35.85;;;21.30;;
71671;SDS011;67659;45.554;11.812;2024-02-15T01:33:13;39.60;;;23.33;;
71671;SDS011;67659;45.554;11.812;2024-02-15T01:35:39;35.45;;;20.63;;
71671;SDS011;67659;45.554;11.812;2024-02-15T01:38:05;38.55;;;21.63;;
71671;SDS011;67659;45.554;11.812;2024-02-15T01:40:32;33.58;;;20.65;;
71671;SDS011;67659;45.554;11.812;2024-02-15T01:42:58;32.92;;;19.33;;
71671;SDS011;67659;45.554;11.812;2024-02-15T01:45:25;33.10;;;20.73;;
71671;SDS011;67659;45.554;11.812;2024-02-15T01:47:53;36.42;;;20.67;;
71671;SDS011;67659;45.554;11.812;2024-02-15T01:50:19;42.70;;;25.02;;
71671;SDS011;67659;45.554;11.812;2024-02-15T01:52:47;34.40;;;20.77;;
71671;SDS011;67659;45.554;11.812;2024-02-15T01:55:15;41.90;;;24.00;;
71671;SDS011;67659;45.554;11.812;2024-02-15T01:57:46;42.07;;;24.20;;
71671;SDS011;67659;45.554;11.812;2024-02-15T02:00:18;44.80;;;25.65;;
71671;SDS011;67659;45.554;11.812;2024-02-15T02:02:45;40.35;;;23.08;;
71671;SDS011;67659;45.554;11.812;2024-02-15T02:05:12;36.72;;;21.95;;
71671;SDS011;67659;45.554;11.812;2024-02-15T02:07:38;41.33;;;24.52;;
71671;SDS011;67659;45.554;11.812;2024-02-15T02:10:04;40.70;;;22.17;;
71671;SDS011;67659;45.554;11.812;2024-02-15T02:12:32;44.78;;;24.25;;
71671;SDS011;67659;45.554;11.812;2024-02-15T02:14:58;39.00;;;22.23;;
71671;SDS011;67659;45.554;11.812;2024-02-15T02:17:24;43.92;;;22.67;;
71671;SDS011;67659;45.554;11.812;2024-02-15T02:19:51;40.60;;;22.48;;
71671;SDS011;67659;45.554;11.812;2024-02-15T02:22:17;45.77;;;26.77;;
71671;SDS011;67659;45.554;11.812;2024-02-15T02:27:31;45.25;;;24.65;;
71671;SDS011;67659;45.554;11.812;2024-02-15T02:29:57;40.20;;;22.90;;
71671;SDS011;67659;45.554;11.812;2024-02-15T02:32:25;36.88;;;22.20;;
71671;SDS011;67659;45.554;11.812;2024-02-15T02:34:52;36.17;;;20.67;;
71671;SDS011;67659;45.554;11.812;2024-02-15T02:37:23;42.90;;;23.35;;
71671;SDS011;67659;45.554;11.812;2024-02-15T02:39:49;41.65;;;24.02;;
71671;SDS011;67659;45.554;11.812;2024-02-15T02:42:16;41.83;;;23.30;;
71671;SDS011;67659;45.554;11.812;2024-02-15T02:44:42;39.22;;;22.95;;
71671;SDS011;67659;45.554;11.812;2024-02-15T02:47:08;41.77;;;23.40;;
71671;SDS011;67659;45.554;11.812;2024-02-15T02:49:36;39.65;;;23.48;;
71671;SDS011;67659;45.554;11.812;2024-02-15T02:52:02;38.10;;;22.17;;
71671;SDS011;67659;45.554;11.812;2024-02-15T02:54:29;37.42;;;22.23;;
71671;SDS011;67659;45.554;11.812;2024-02-15T02:56:55;38.78;;;23.33;;
71671;SDS011;67659;45.554;11.812;2024-02-15T02:59:21;44.90;;;25.43;;
71671;SDS011;67659;45.554;11.812;2024-02-15T03:01:47;48.30;;;26.08;;
71671;SDS011;67659;45.554;11.812;2024-02-15T03:04:16;42.63;;;24.45;;
71671;SDS011;67659;45.554;11.812;2024-02-15T03:06:42;43.67;;;25.30;;
71671;SDS011;67659;45.554;11.812;2024-02-15T03:09:08;44.58;;;25.27;;
71671;SDS011;67659;45.554;11.812;2024-02-15T03:11:35;43.73;;;24.43;;
71671;SDS011;67659;45.554;11.812;2024-02-15T03:14:02;43.08;;;24.58;;
71671;SDS011;67659;45.554;11.812;2024-02-15T03:16:31;42.90;;;25.08;;
71671;SDS011;67659;45.554;11.812;2024-02-15T03:18:58;45.05;;;25.90;;
71671;SDS011;67659;45.554;11.812;2024-02-15T03:21:26;40.50;;;24.83;;
71671;SDS011;67659;45.554;11.812;2024-02-15T03:23:52;41.57;;;24.60;;
71671;SDS011;67659;45.554;11.812;2024-02-15T03:26:19;38.75;;;23.58;;
71671;SDS011;67659;45.554;11.812;2024-02-15T03:28:56;38.05;;;22.83;;
71671;SDS011;67659;45.554;11.812;2024-02-15T03:31:22;36.50;;;21.45;;
71671;SDS011;67659;45.554;11.812;2024-02-15T03:33:48;33.83;;;21.63;;
71671;SDS011;67659;45.554;11.812;2024-02-15T03:36:15;34.67;;;20.52;;
71671;SDS011;67659;45.554;11.812;2024-02-15T03:38:45;38.95;;;21.17;;
71671;SDS011;67659;45.554;11.812;2024-02-15T03:41:11;33.20;;;19.85;;
71671;SDS011;67659;45.554;11.812;2024-02-15T03:43:37;36.08;;;21.38;;
71671;SDS011;67659;45.554;11.812;2024-02-15T03:46:04;40.27;;;23.33;;
71671;SDS011;67659;45.554;11.812;2024-02-15T03:48:30;42.42;;;25.48;;
71671;SDS011;67659;45.554;11.812;2024-02-15T03:50:57;38.42;;;23.42;;
71671;SDS011;67659;45.554;11.812;2024-02-15T03:53:23;43.38;;;25.42;;
71671;SDS011;67659;45.554;11.812;2024-02-15T03:55:49;67.13;;;29.55;;
71671;SDS011;67659;45.554;11.812;2024-02-15T03:58:18;98.33;;;30.87;;
71671;SDS011;67659;45.554;11.812;2024-02-15T04:00:45;137.95;;;32.97;;
71671;SDS011;67659;45.554;11.812;2024-02-15T04:03:11;129.30;;;31.60;;
71671;SDS011;67659;45.554;11.812;2024-02-15T04:05:37;226.43;;;37.00;;
71671;SDS011;67659;45.554;11.812;2024-02-15T04:08:03;178.63;;;34.50;;
71671;SDS011;67659;45.554;11.812;2024-02-15T04:10:30;163.70;;;34.97;;
71671;SDS011;67659;45.554;11.812;2024-02-15T04:12:56;187.55;;;34.35;;
71671;SDS011;67659;45.554;11.812;2024-02-15T04:15:23;207.02;;;34.72;;
71671;SDS011;67659;45.554;11.812;2024-02-15T04:17:49;208.97;;;35.07;;
71671;SDS011;67659;45.554;11.812;2024-02-15T04:20:21;177.75;;;38.38;;
71671;SDS011;67659;45.554;11.812;2024-02-15T04:22:47;152.85;;;36.05;;
71671;SDS011;67659;45.554;11.812;2024-02-15T04:25:15;170.18;;;37.78;;
71671;SDS011;67659;45.554;11.812;2024-02-15T04:27:44;121.20;;;36.13;;
71671;SDS011;67659;45.554;11.812;2024-02-15T04:30:11;160.13;;;35.63;;
71671;SDS011;67659;45.554;11.812;2024-02-15T04:32:38;174.00;;;37.28;;
71671;SDS011;67659;45.554;11.812;2024-02-15T04:35:04;135.75;;;36.25;;
71671;SDS011;67659;45.554;11.812;2024-02-15T04:37:30;94.72;;;34.80;;
71671;SDS011;67659;45.554;11.812;2024-02-15T04:39:58;121.70;;;35.00;;
71671;SDS011;67659;45.554;11.812;2024-02-15T04:42:31;71.10;;;31.83;;
71671;SDS011;67659;45.554;11.812;2024-02-15T04:44:59;90.30;;;33.47;;
71671;SDS011;67659;45.554;11.812;2024-02-15T04:47:26;124.40;;;34.28;;
71671;SDS011;67659;45.554;11.812;2024-02-15T04:49:52;95.13;;;34.97;;
71671;SDS011;67659;45.554;11.812;2024-02-15T04:52:19;92.78;;;34.35;;
71671;SDS011;67659;45.554;11.812;2024-02-15T04:54:49;70.60;;;33.60;;
71671;SDS011;67659;45.554;11.812;2024-02-15T04:57:15;98.15;;;33.30;;
71671;SDS011;67659;45.554;11.812;2024-02-15T04:59:43;84.85;;;33.08;;
71671;SDS011;67659;45.554;11.812;2024-02-15T05:02:12;87.20;;;33.15;;
71671;SDS011;67659;45.554;11.812;2024-02-15T05:04:39;94.82;;;33.47;;
71671;SDS011;67659;45.554;11.812;2024-02-15T05:07:07;71.40;;;34.20;;
71671;SDS011;67659;45.554;11.812;2024-02-15T05:09:36;69.22;;;32.53;;
71671;SDS011;67659;45.554;11.812;2024-02-15T05:12:02;77.03;;;30.70;;
71671;SDS011;67659;45.554;11.812;2024-02-15T05:14:29;117.68;;;32.83;;
71671;SDS011;67659;45.554;11.812;2024-02-15T05:16:56;110.00;;;31.48;;
71671;SDS011;67659;45.554;11.812;2024-02-15T05:19:22;159.63;;;32.03;;
71671;SDS011;67659;45.554;11.812;2024-02-15T05:21:49;157.85;;;32.35;;
71671;SDS011;67659;45.554;11.812;2024-02-15T05:24:16;137.88;;;32.00;;
71671;SDS011;67659;45.554;11.812;2024-02-15T05:26:46;120.13;;;29.20;;
71671;SDS011;67659;45.554;11.812;2024-02-15T05:29:12;160.20;;;32.33;;
71671;SDS011;67659;45.554;11.812;2024-02-15T05:31:39;99.00;;;30.30;;
71671;SDS011;67659;45.554;11.812;2024-02-15T05:34:05;76.90;;;28.92;;
71671;SDS011;67659;45.554;11.812;2024-02-15T05:36:36;106.47;;;30.13;;
71671;SDS011;67659;45.554;11.812;2024-02-15T05:39:03;97.00;;;29.55;;
71671;SDS011;67659;45.554;11.812;2024-02-15T05:41:30;78.70;;;29.33;;
71671;SDS011;67659;45.554;11.812;2024-02-15T05:43:59;168.60;;;33.43;;
71671;SDS011;67659;45.554;11.812;2024-02-15T05:46:25;96.57;;;30.27;;
71671;SDS011;67659;45.554;11.812;2024-02-15T05:48:53;97.63;;;30.95;;
71671;SDS011;67659;45.554;11.812;2024-02-15T05:51:20;95.45;;;31.65;;
71671;SDS011;67659;45.554;11.812;2024-02-15T05:53:47;111.72;;;31.70;;
71671;SDS011;67659;45.554;11.812;2024-02-15T05:56:14;89.07;;;31.70;;
71671;SDS011;67659;45.554;11.812;2024-02-15T05:58:41;73.35;;;30.65;;
71671;SDS011;67659;45.554;11.812;2024-02-15T06:01:07;89.18;;;31.42;;
71671;SDS011;67659;45.554;11.812;2024-02-15T06:03:37;60.47;;;29.58;;
71671;SDS011;67659;45.554;11.812;2024-02-15T06:06:04;85.38;;;31.00;;
71671;SDS011;67659;45.554;11.812;2024-02-15T06:08:34;72.30;;;30.00;;
71671;SDS011;67659;45.554;11.812;2024-02-15T06:11:01;64.88;;;28.92;;
71671;SDS011;67659;45.554;11.812;2024-02-15T06:13:29;72.43;;;29.73;;
71671;SDS011;67659;45.554;11.812;2024-02-15T06:15:56;69.15;;;30.10;;
71671;SDS011;67659;45.554;11.812;2024-02-15T06:18:27;99.25;;;30.98;;
71671;SDS011;67659;45.554;11.812;2024-02-15T06:20:57;65.83;;;27.83;;
71671;SDS011;67659;45.554;11.812;2024-02-15T06:23:25;100.60;;;30.45;;
71671;SDS011;67659;45.554;11.812;2024-02-15T06:25:55;61.13;;;27.08;;
71671;SDS011;67659;45.554;11.812;2024-02-15T06:28:23;57.45;;;28.48;;
71671;SDS011;67659;45.554;11.812;2024-02-15T06:31:08;55.38;;;28.13;;
71671;SDS011;67659;45.554;11.812;2024-02-15T06:33:52;52.77;;;27.43;;
71671;SDS011;67659;45.554;11.812;2024-02-15T06:36:40;66.90;;;28.27;;
71671;SDS011;67659;45.554;11.812;2024-02-15T06:39:31;101.32;;;31.52;;
71671;SDS011;67659;45.554;11.812;2024-02-15T06:42:06;86.30;;;30.73;;
71671;SDS011;67659;45.554;11.812;2024-02-15T06:44:33;149.95;;;32.65;;
71671;SDS011;67659;45.554;11.812;2024-02-15T06:46:59;64.60;;;30.77;;
71671;SDS011;67659;45.554;11.812;2024-02-15T06:49:25;52.08;;;30.58;;
71671;SDS011;67659;45.554;11.812;2024-02-15T06:51:51;51.92;;;30.52;;
71671;SDS011;67659;45.554;11.812;2024-02-15T06:54:17;54.25;;;30.63;;
71671;SDS011;67659;45.554;11.812;2024-02-15T06:56:45;51.55;;;29.35;;
71671;SDS011;67659;45.554;11.812;2024-02-15T06:59:12;51.83;;;29.87;;
71671;SDS011;67659;45.554;11.812;2024-02-15T07:01:41;47.25;;;29.20;;
71671;SDS011;67659;45.554;11.812;2024-02-15T07:04:07;46.75;;;28.60;;
71671;SDS011;67659;45.554;11.812;2024-02-15T07:06:36;49.15;;;28.48;;
71671;SDS011;67659;45.554;11.812;2024-02-15T07:09:05;45.80;;;27.30;;
71671;SDS011;67659;45.554;11.812;2024-02-15T07:11:33;45.93;;;29.13;;
71671;SDS011;67659;45.554;11.812;2024-02-15T07:14:00;42.17;;;25.77;;
71671;SDS011;67659;45.554;11.812;2024-02-15T07:16:26;40.45;;;25.55;;
71671;SDS011;67659;45.554;11.812;2024-02-15T07:18:52;41.95;;;26.17;;
71671;SDS011;67659;45.554;11.812;2024-02-15T07:21:19;40.77;;;25.30;;
71671;SDS011;67659;45.554;11.812;2024-02-15T07:23:50;42.53;;;26.10;;
71671;SDS011;67659;45.554;11.812;2024-02-15T07:26:17;41.20;;;26.45;;
71671;SDS011;67659;45.554;11.812;2024-02-15T07:28:45;42.05;;;26.88;;
71671;SDS011;67659;45.554;11.812;2024-02-15T07:31:13;42.25;;;26.35;;
71671;SDS011;67659;45.554;11.812;2024-02-15T07:33:39;43.53;;;27.90;;
71671;SDS011;67659;45.554;11.812;2024-02-15T07:36:08;46.17;;;28.17;;
71671;SDS011;67659;45.554;11.812;2024-02-15T07:38:34;42.20;;;27.42;;
71671;SDS011;67659;45.554;11.812;2024-02-15T07:41:00;42.97;;;29.23;;
71671;SDS011;67659;45.554;11.812;2024-02-15T07:43:26;38.63;;;26.70;;
71671;SDS011;67659;45.554;11.812;2024-02-15T07:45:52;38.78;;;27.33;;
71671;SDS011;67659;45.554;11.812;2024-02-15T07:48:18;39.95;;;27.20;;
71671;SDS011;67659;45.554;11.812;2024-02-15T07:50:44;39.75;;;27.50;;
71671;SDS011;67659;45.554;11.812;2024-02-15T07:53:10;38.00;;;27.53;;
71671;SDS011;67659;45.554;11.812;2024-02-15T07:55:37;39.13;;;28.33;;
71671;SDS011;67659;45.554;11.812;2024-02-15T07:58:06;42.92;;;29.23;;
71671;SDS011;67659;45.554;11.812;2024-02-15T08:00:32;39.65;;;28.95;;
71671;SDS011;67659;45.554;11.812;2024-02-15T08:02:58;42.72;;;29.48;;
71671;SDS011;67659;45.554;11.812;2024-02-15T08:05:24;37.80;;;30.07;;
71671;SDS011;67659;45.554;11.812;2024-02-15T08:07:50;39.10;;;30.52;;
71671;SDS011;67659;45.554;11.812;2024-02-15T08:10:16;39.03;;;30.38;;
71671;SDS011;67659;45.554;11.812;2024-02-15T08:12:42;37.85;;;29.25;;
71671;SDS011;67659;45.554;11.812;2024-02-15T08:15:10;38.97;;;29.87;;
71671;SDS011;67659;45.554;11.812;2024-02-15T08:17:43;38.53;;;29.08;;
71671;SDS011;67659;45.554;11.812;2024-02-15T08:20:13;35.83;;;30.23;;
71671;SDS011;67659;45.554;11.812;2024-02-15T08:22:40;39.53;;;31.10;;
71671;SDS011;67659;45.554;11.812;2024-02-15T08:25:09;38.50;;;31.00;;
71671;SDS011;67659;45.554;11.812;2024-02-15T08:27:36;36.97;;;31.00;;
71671;SDS011;67659;45.554;11.812;2024-02-15T08:30:11;38.97;;;32.55;;
71671;SDS011;67659;45.554;11.812;2024-02-15T08:32:38;40.20;;;32.40;;
71671;SDS011;67659;45.554;11.812;2024-02-15T08:35:08;36.15;;;32.00;;
71671;SDS011;67659;45.554;11.812;2024-02-15T08:37:38;37.75;;;31.77;;
71671;SDS011;67659;45.554;11.812;2024-02-15T08:40:07;38.70;;;31.87;;
71671;SDS011;67659;45.554;11.812;2024-02-15T08:42:39;39.22;;;32.10;;
71671;SDS011;67659;45.554;11.812;2024-02-15T08:45:06;35.72;;;28.48;;
71671;SDS011;67659;45.554;11.812;2024-02-15T08:47:35;33.08;;;28.23;;
71671;SDS011;67659;45.554;11.812;2024-02-15T08:53:03;34.40;;;27.73;;
71671;SDS011;67659;45.554;11.812;2024-02-15T08:55:32;35.10;;;28.40;;
71671;SDS011;67659;45.554;11.812;2024-02-15T08:58:00;30.75;;;26.17;;
71671;SDS011;67659;45.554;11.812;2024-02-15T09:00:27;32.47;;;26.88;;
71671;SDS011;67659;45.554;11.812;2024-02-15T09:02:53;32.42;;;27.35;;
71671;SDS011;67659;45.554;11.812;2024-02-15T09:05:19;30.87;;;27.03;;
71671;SDS011;67659;45.554;11.812;2024-02-15T09:07:47;30.83;;;27.30;;
71671;SDS011;67659;45.554;11.812;2024-02-15T09:10:13;32.35;;;27.00;;
71671;SDS011;67659;45.554;11.812;2024-02-15T09:12:42;31.42;;;26.65;;
71671;SDS011;67659;45.554;11.812;2024-02-15T09:15:10;32.30;;;25.92;;
71671;SDS011;67659;45.554;11.812;2024-02-15T09:17:36;29.03;;;25.87;;
71671;SDS011;67659;45.554;11.812;2024-02-15T09:20:06;24.92;;;21.88;;
71671;SDS011;67659;45.554;11.812;2024-02-15T09:22:46;23.98;;;20.83;;
71671;SDS011;67659;45.554;11.812;2024-02-15T09:25:13;27.10;;;22.80;;
71671;SDS011;67659;45.554;11.812;2024-02-15T09:27:40;30.13;;;25.55;;
71671;SDS011;67659;45.554;11.812;2024-02-15T09:30:06;29.27;;;25.50;;
71671;SDS011;67659;45.554;11.812;2024-02-15T09:32:35;29.08;;;25.88;;
71671;SDS011;67659;45.554;11.812;2024-02-15T09:35:01;31.58;;;26.50;;
71671;SDS011;67659;45.554;11.812;2024-02-15T09:37:27;29.73;;;25.38;;
71671;SDS011;67659;45.554;11.812;2024-02-15T09:39:55;30.70;;;25.58;;
71671;SDS011;67659;45.554;11.812;2024-02-15T09:42:21;30.23;;;25.07;;
71671;SDS011;67659;45.554;11.812;2024-02-15T09:44:49;31.60;;;26.02;;
71671;SDS011;67659;45.554;11.812;2024-02-15T09:47:16;29.08;;;24.58;;
71671;SDS011;67659;45.554;11.812;2024-02-15T09:49:44;27.98;;;24.05;;
71671;SDS011;67659;45.554;11.812;2024-02-15T09:52:10;27.93;;;24.37;;
71671;SDS011;67659;45.554;11.812;2024-02-15T09:54:43;31.23;;;26.13;;
71671;SDS011;67659;45.554;11.812;2024-02-15T09:57:09;31.88;;;25.40;;
71671;SDS011;67659;45.554;11.812;2024-02-15T09:59:36;30.95;;;25.88;;
71671;SDS011;67659;45.554;11.812;2024-02-15T10:02:05;31.00;;;24.70;;
71671;SDS011;67659;45.554;11.812;2024-02-15T10:04:39;33.38;;;27.45;;
71671;SDS011;67659;45.554;11.812;2024-02-15T10:07:05;34.30;;;28.50;;
71671;SDS011;67659;45.554;11.812;2024-02-15T10:09:34;36.13;;;28.70;;
71671;SDS011;67659;45.554;11.812;2024-02-15T10:12:02;35.63;;;29.20;;
71671;SDS011;67659;45.554;11.812;2024-02-15T10:14:31;36.38;;;29.63;;
71671;SDS011;67659;45.554;11.812;2024-02-15T10:17:05;34.70;;;27.90;;
71671;SDS011;67659;45.554;11.812;2024-02-15T10:19:37;37.20;;;27.47;;
71671;SDS011;67659;45.554;11.812;2024-02-15T10:22:07;34.25;;;28.25;;
71671;SDS011;67659;45.554;11.812;2024-02-15T10:24:34;35.17;;;27.30;;
71671;SDS011;67659;45.554;11.812;2024-02-15T10:27:03;35.70;;;28.23;;
71671;SDS011;67659;45.554;11.812;2024-02-15T10:29:32;36.95;;;27.77;;
71671;SDS011;67659;45.554;11.812;2024-02-15T10:32:00;35.00;;;26.77;;
71671;SDS011;67659;45.554;11.812;2024-02-15T10:34:28;37.28;;;28.45;;
71671;SDS011;67659;45.554;11.812;2024-02-15T10:36:55;35.25;;;27.95;;
71671;SDS011;67659;45.554;11.812;2024-02-15T10:39:36;33.75;;;27.55;;
71671;SDS011;67659;45.554;11.812;2024-02-15T10:42:02;36.30;;;27.05;;
71671;SDS011;67659;45.554;11.812;2024-02-15T10:44:31;33.73;;;26.47;;
71671;SDS011;67659;45.554;11.812;2024-02-15T10:46:59;33.80;;;26.60;;
71671;SDS011;67659;45.554;11.812;2024-02-15T10:49:31;35.10;;;28.30;;
71671;SDS011;67659;45.554;11.812;2024-02-15T10:52:00;37.85;;;30.63;;
71671;SDS011;67659;45.554;11.812;2024-02-15T10:54:35;39.80;;;29.20;;
71671;SDS011;67659;45.554;11.812;2024-02-15T10:57:21;37.45;;;29.13;;
71671;SDS011;67659;45.554;11.812;2024-02-15T10:59:52;39.33;;;29.77;;
71671;SDS011;67659;45.554;11.812;2024-02-15T11:04:53;39.03;;;30.73;;
71671;SDS011;67659;45.554;11.812;2024-02-15T11:07:25;39.50;;;31.23;;
71671;SDS011;67659;45.554;11.812;2024-02-15T11:09:55;37.58;;;29.08;;
71671;SDS011;67659;45.554;11.812;2024-02-15T11:12:22;36.85;;;29.27;;
71671;SDS011;67659;45.554;11.812;2024-02-15T11:14:49;38.80;;;29.20;;
71671;SDS011;67659;45.554;11.812;2024-02-15T11:20:02;37.03;;;28.77;;
71671;SDS011;67659;45.554;11.812;2024-02-15T11:22:35;37.83;;;29.30;;
71671;SDS011;67659;45.554;11.812;2024-02-15T11:25:02;36.25;;;28.52;;
71671;SDS011;67659;45.554;11.812;2024-02-15T11:27:33;39.03;;;30.17;;
71671;SDS011;67659;45.554;11.812;2024-02-15T11:30:03;37.65;;;30.75;;
71671;SDS011;67659;45.554;11.812;2024-02-15T11:32:48;37.57;;;31.00;;
71671;SDS011;67659;45.554;11.812;2024-02-15T11:35:19;35.78;;;29.50;;
71671;SDS011;67659;45.554;11.812;2024-02-15T11:40:28;40.80;;;32.33;;
71671;SDS011;67659;45.554;11.812;2024-02-15T11:46:13;40.03;;;31.27;;
71671;SDS011;67659;45.554;11.812;2024-02-15T11:48:40;42.22;;;32.45;;
71671;SDS011;67659;45.554;11.812;2024-02-15T11:51:07;47.35;;;33.85;;
71671;SDS011;67659;45.554;11.812;2024-02-15T11:53:36;38.50;;;31.77;;
71671;SDS011;67659;45.554;11.812;2024-02-15T11:56:02;41.60;;;34.53;;
71671;SDS011;67659;45.554;11.812;2024-02-15T11:58:34;41.30;;;33.23;;
71671;SDS011;67659;45.554;11.812;2024-02-15T12:01:17;39.67;;;33.00;;
71671;SDS011;67659;45.554;11.812;2024-02-15T12:04:02;41.97;;;35.08;;
71671;SDS011;67659;45.554;11.812;2024-02-15T12:06:48;43.25;;;35.58;;
71671;SDS011;67659;45.554;11.812;2024-02-15T12:09:32;40.05;;;34.05;;
71671;SDS011;67659;45.554;11.812;2024-02-15T12:12:17;44.27;;;34.87;;
71671;SDS011;67659;45.554;11.812;2024-02-15T12:15:02;43.28;;;34.58;;
71671;SDS011;67659;45.554;11.812;2024-02-15T12:17:47;42.83;;;34.78;;
71671;SDS011;67659;45.554;11.812;2024-02-15T12:20:32;43.38;;;34.95;;
71671;SDS011;67659;45.554;11.812;2024-02-15T12:22:59;41.45;;;33.58;;
71671;SDS011;67659;45.554;11.812;2024-02-15T12:25:28;44.07;;;35.73;;
71671;SDS011;67659;45.554;11.812;2024-02-15T12:27:58;46.05;;;36.17;;
71671;SDS011;67659;45.554;11.812;2024-02-15T12:30:25;42.30;;;32.92;;
71671;SDS011;67659;45.554;11.812;2024-02-15T12:33:08;41.75;;;32.78;;
71671;SDS011;67659;45.554;11.812;2024-02-15T12:35:35;44.20;;;35.08;;
71671;SDS011;67659;45.554;11.812;2024-02-15T12:38:03;43.17;;;34.53;;
71671;SDS011;67659;45.554;11.812;2024-02-15T12:40:32;42.83;;;33.15;;
71671;SDS011;67659;45.554;11.812;2024-02-15T12:42:59;42.15;;;33.38;;
71671;SDS011;67659;45.554;11.812;2024-02-15T12:45:26;40.03;;;32.65;;
71671;SDS011;67659;45.554;11.812;2024-02-15T12:47:55;40.17;;;32.65;;
71671;SDS011;67659;45.554;11.812;2024-02-15T12:50:28;42.70;;;35.63;;
71671;SDS011;67659;45.554;11.812;2024-02-15T12:52:55;43.97;;;34.92;;
71671;SDS011;67659;45.554;11.812;2024-02-15T12:55:27;43.80;;;35.10;;
71671;SDS011;67659;45.554;11.812;2024-02-15T12:57:56;43.60;;;34.03;;
71671;SDS011;67659;45.554;11.812;2024-02-15T13:00:23;42.88;;;35.53;;
71671;SDS011;67659;45.554;11.812;2024-02-15T13:03:01;43.40;;;35.17;;
71671;SDS011;67659;45.554;11.812;2024-02-15T13:05:29;42.78;;;35.03;;
71671;SDS011;67659;45.554;11.812;2024-02-15T13:07:57;42.03;;;34.65;;
71671;SDS011;67659;45.554;11.812;2024-02-15T13:10:23;43.15;;;34.92;;
71671;SDS011;67659;45.554;11.812;2024-02-15T13:12:51;42.85;;;33.70;;
71671;SDS011;67659;45.554;11.812;2024-02-15T13:15:18;45.37;;;35.20;;
71671;SDS011;67659;45.554;11.812;2024-02-15T13:17:48;43.95;;;34.17;;
71671;SDS011;67659;45.554;11.812;2024-02-15T13:20:16;47.38;;;36.15;;
71671;SDS011;67659;45.554;11.812;2024-02-15T13:22:45;45.72;;;36.60;;
71671;SDS011;67659;45.554;11.812;2024-02-15T13:25:15;45.70;;;35.78;;
71671;SDS011;67659;45.554;11.812;2024-02-15T13:27:42;46.90;;;36.10;;
71671;SDS011;67659;45.554;11.812;2024-02-15T13:30:09;49.58;;;37.13;;
71671;SDS011;67659;45.554;11.812;2024-02-15T13:32:37;47.97;;;37.10;;
71671;SDS011;67659;45.554;11.812;2024-02-15T13:35:09;46.25;;;35.63;;
71671;SDS011;67659;45.554;11.812;2024-02-15T13:37:47;52.00;;;36.80;;
71671;SDS011;67659;45.554;11.812;2024-02-15T13:40:17;50.43;;;37.40;;
71671;SDS011;67659;45.554;11.812;2024-02-15T13:42:46;48.33;;;35.30;;
71671;SDS011;67659;45.554;11.812;2024-02-15T13:45:19;50.22;;;35.83;;
71671;SDS011;67659;45.554;11.812;2024-02-15T13:47:50;51.08;;;37.25;;
71671;SDS011;67659;45.554;11.812;2024-02-15T13:50:18;50.63;;;37.60;;
71671;SDS011;67659;45.554;11.812;2024-02-15T13:52:45;51.00;;;36.90;;
71671;SDS011;67659;45.554;11.812;2024-02-15T13:55:14;49.63;;;36.50;;
71671;SDS011;67659;45.554;11.812;2024-02-15T13:57:44;49.40;;;35.90;;
71671;SDS011;67659;45.554;11.812;2024-02-15T14:00:12;50.70;;;34.90;;
71671;SDS011;67659;45.554;11.812;2024-02-15T14:02:49;52.05;;;38.33;;
71671;SDS011;67659;45.554;11.812;2024-02-15T14:05:17;51.90;;;36.17;;
71671;SDS011;67659;45.554;11.812;2024-02-15T14:07:48;50.80;;;37.60;;
71671;SDS011;67659;45.554;11.812;2024-02-15T14:10:15;52.10;;;37.78;;
71671;SDS011;67659;45.554;11.812;2024-02-15T14:12:47;51.67;;;37.13;;
71671;SDS011;67659;45.554;11.812;2024-02-15T14:15:15;52.47;;;38.20;;
71671;SDS011;67659;45.554;11.812;2024-02-15T14:17:42;51.03;;;37.47;;
71671;SDS011;67659;45.554;11.812;2024-02-15T14:20:12;52.47;;;38.22;;
71671;SDS011;67659;45.554;11.812;2024-02-15T14:22:45;53.20;;;38.47;;
71671;SDS011;67659;45.554;11.812;2024-02-15T14:25:21;55.53;;;39.97;;
